createdAt,value
2022-11-17T00:03:28.223Z,8.38
2022-11-17T00:08:31.015Z,7.45
2022-11-17T00:13:52.598Z,9.23
2022-11-17T00:19:13.400Z,7.88
2022-11-17T00:24:18.700Z,8.00
2022-11-17T00:29:21.271Z,7.70
2022-11-17T00:34:24.254Z,7.75
2022-11-17T00:39:26.747Z,7.68
2022-11-17T00:44:29.880Z,8.88
2022-11-17T00:49:32.555Z,10.75
2022-11-17T00:54:35.111Z,8.48
2022-11-17T00:59:37.740Z,10.80
2022-11-17T01:04:40.214Z,10.63
2022-11-17T01:09:42.744Z,10.80
2022-11-17T01:14:45.214Z,10.75
2022-11-17T01:19:49.378Z,9.88
2022-11-17T01:24:51.905Z,11.30
2022-11-17T01:29:54.385Z,13.95
2022-11-17T01:34:56.824Z,10.55
2022-11-17T01:39:59.296Z,10.82
2022-11-17T01:45:26.971Z,11.85
2022-11-17T01:50:40.895Z,9.48
2022-11-17T01:55:51.156Z,13.00
2022-11-17T02:00:54.903Z,12.18
2022-11-17T02:06:05.051Z,11.05
2022-11-17T02:11:12.635Z,13.65
2022-11-17T02:16:17.504Z,13.95
2022-11-17T02:21:52.852Z,12.70
2022-11-17T02:27:24.296Z,9.75
2022-11-17T02:32:38.844Z,7.70
2022-11-17T02:37:55.475Z,7.30
2022-11-17T02:43:19.001Z,7.20
2022-11-17T02:48:44.318Z,6.95
2022-11-17T02:53:48.411Z,7.18
2022-11-17T02:58:55.918Z,7.18
2022-11-17T03:04:19.716Z,6.07
2022-11-17T03:09:30.701Z,8.57
2022-11-17T03:15:03.865Z,10.13
2022-11-17T03:20:50.480Z,10.63
2022-11-17T03:25:58.983Z,12.50
2022-11-17T03:31:04.929Z,13.18
2022-11-17T03:36:12.881Z,19.10
2022-11-17T03:41:18.605Z,16.80
2022-11-17T03:46:24.829Z,16.05
2022-11-17T03:51:33.496Z,19.38
2022-11-17T03:56:51.935Z,15.35
2022-11-17T04:01:54.698Z,19.17
2022-11-17T04:06:57.253Z,21.92
2022-11-17T04:12:18.489Z,14.60
2022-11-17T04:17:20.988Z,21.52
2022-11-17T04:22:23.531Z,19.52
2022-11-17T04:28:04.708Z,17.08
2022-11-17T04:33:07.145Z,22.85
2022-11-17T04:38:10.298Z,17.23
2022-11-17T04:43:12.677Z,22.98
2022-11-17T04:48:15.209Z,19.83
2022-11-17T04:53:17.690Z,20.67
2022-11-17T04:58:20.201Z,28.00
2022-11-17T05:03:23.225Z,28.10
2022-11-17T05:08:26.632Z,25.17
2022-11-17T05:13:29.264Z,23.20
2022-11-17T05:18:31.688Z,32.45
2022-11-17T05:23:52.868Z,23.60
2022-11-17T05:28:57.737Z,21.55
2022-11-17T05:34:01.543Z,25.13
2022-11-17T05:39:04.540Z,20.42
2022-11-17T05:44:07.054Z,21.17
2022-11-17T05:49:09.587Z,20.40
2022-11-17T05:54:12.153Z,21.20
2022-11-17T05:59:30.416Z,18.30
2022-11-17T06:04:33.155Z,28.73
2022-11-17T06:09:39.500Z,23.00
2022-11-17T06:14:42.104Z,23.17
2022-11-17T06:19:49.219Z,36.88
2022-11-17T06:30:00.461Z,30.75
2022-11-17T06:35:05.997Z,24.30
2022-11-17T06:40:10.332Z,18.45
2022-11-17T06:45:12.993Z,45.13
2022-11-17T06:50:15.599Z,29.25
2022-11-17T06:55:18.953Z,29.40
2022-11-17T07:00:21.848Z,40.42
2022-11-17T07:05:24.363Z,42.17
2022-11-17T07:10:27.779Z,26.08
2022-11-17T07:15:30.626Z,29.02
2022-11-17T07:20:33.553Z,27.42
2022-11-17T07:25:36.178Z,22.88
2022-11-17T07:30:38.715Z,33.15
2022-11-17T07:35:41.434Z,16.05
2022-11-17T07:40:43.988Z,18.00
2022-11-17T07:45:46.595Z,25.70
2022-11-17T07:50:49.214Z,12.38
2022-11-17T07:55:51.750Z,10.80
2022-11-17T08:00:54.305Z,9.05
2022-11-17T08:05:58.074Z,9.70
2022-11-17T08:11:05.474Z,9.30
2022-11-17T08:16:09.408Z,12.88
2022-11-17T08:21:14.207Z,10.73
2022-11-17T08:26:16.844Z,8.70
2022-11-17T08:31:19.397Z,7.07
2022-11-17T08:36:22.084Z,7.22
2022-11-17T08:41:26.163Z,6.07
2022-11-17T08:46:28.974Z,6.18
2022-11-17T08:51:31.632Z,6.22
2022-11-17T08:56:34.143Z,7.18
2022-11-17T09:01:36.747Z,6.68
2022-11-17T09:06:39.350Z,7.00
2022-11-17T09:11:41.939Z,5.20
2022-11-17T09:16:44.373Z,5.38
2022-11-17T09:21:46.933Z,6.85
2022-11-17T09:26:49.786Z,6.60
2022-11-17T09:31:52.455Z,6.88
2022-11-17T09:36:55.016Z,5.95
2022-11-17T09:41:59.045Z,9.27
2022-11-17T09:47:24.191Z,7.05
2022-11-17T09:52:33.324Z,7.13
2022-11-17T09:57:49.075Z,6.82
2022-11-17T10:02:54.117Z,8.18
2022-11-17T10:08:08.962Z,7.35
2022-11-17T10:13:17.823Z,8.27
2022-11-17T10:18:20.710Z,14.07
2022-11-17T10:23:23.332Z,7.72
2022-11-17T10:28:32.122Z,8.68
2022-11-17T10:33:36.629Z,9.60
2022-11-17T10:38:45.837Z,8.52
2022-11-17T10:44:02.719Z,9.57
2022-11-17T10:49:24.863Z,7.55
2022-11-17T10:54:27.380Z,9.95
2022-11-17T10:59:33.834Z,8.32
2022-11-17T11:04:41.740Z,8.77
2022-11-17T11:10:00.361Z,7.40
2022-11-17T11:15:09.493Z,6.38
2022-11-17T11:20:17.592Z,6.95
2022-11-17T11:25:26.204Z,6.45
2022-11-17T11:30:36.444Z,6.63
2022-11-17T11:35:38.898Z,7.78
2022-11-17T11:40:46.027Z,7.10
2022-11-17T11:46:18.944Z,5.68
2022-11-17T11:51:37.435Z,5.60
2022-11-17T11:56:42.829Z,5.38
2022-11-17T12:02:01.674Z,5.13
2022-11-17T12:07:11.582Z,5.70
2022-11-17T12:12:18.479Z,6.65
2022-11-17T12:17:34.292Z,8.38
2022-11-17T12:22:36.817Z,7.90
2022-11-17T12:27:39.786Z,9.10
2022-11-17T12:32:45.023Z,12.45
2022-11-17T12:37:47.497Z,9.60
2022-11-17T12:43:16.007Z,12.32
2022-11-17T12:48:33.352Z,16.38
2022-11-17T12:54:21.253Z,14.98
2022-11-17T12:59:37.001Z,18.42
2022-11-17T13:04:50.265Z,16.83
2022-11-17T13:09:57.609Z,19.33
2022-11-17T13:15:05.686Z,22.40
2022-11-17T13:20:30.944Z,21.52
2022-11-17T13:25:35.498Z,22.95
2022-11-17T13:30:38.604Z,22.30
2022-11-17T13:35:41.219Z,22.50
2022-11-17T13:40:44.280Z,22.95
2022-11-17T13:45:51.419Z,27.33
2022-11-17T13:51:18.724Z,25.50
2022-11-17T13:56:37.281Z,22.98
2022-11-17T14:01:39.793Z,31.65
2022-11-17T14:07:02.688Z,27.05
2022-11-17T14:12:11.759Z,30.52
2022-11-17T14:17:22.509Z,29.77
2022-11-17T14:22:31.229Z,29.55
2022-11-17T14:27:37.507Z,30.02
2022-11-17T14:32:40.602Z,29.77
2022-11-17T14:37:43.871Z,25.83
2022-11-17T14:42:46.405Z,27.83
2022-11-17T14:47:48.985Z,28.90
2022-11-17T14:52:51.709Z,27.73
2022-11-17T14:57:54.573Z,25.33
2022-11-17T15:02:57.380Z,26.10
2022-11-17T15:07:59.946Z,29.13
2022-11-17T15:13:02.599Z,29.88
2022-11-17T15:18:05.294Z,30.00
2022-11-17T15:23:08.593Z,30.42
2022-11-17T15:28:15.014Z,34.00
2022-11-17T15:33:24.778Z,36.88
2022-11-17T15:38:27.289Z,36.63
2022-11-17T15:43:31.937Z,39.40
2022-11-17T15:48:39.083Z,35.00
2022-11-17T15:54:03.083Z,33.83
2022-11-17T15:59:06.836Z,33.45
2022-11-17T16:04:11.621Z,38.67
2022-11-17T16:09:15.461Z,34.42
2022-11-17T16:14:18.324Z,35.30
2022-11-17T16:19:20.845Z,35.92
2022-11-17T16:24:23.363Z,34.05
2022-11-17T16:29:25.969Z,37.13
2022-11-17T16:34:28.851Z,34.70
2022-11-17T16:39:31.488Z,38.53
2022-11-17T16:44:34.055Z,37.85
2022-11-17T16:49:36.997Z,43.70
2022-11-17T16:54:39.476Z,40.78
2022-11-17T16:59:41.998Z,34.45
2022-11-17T17:04:44.581Z,36.05
2022-11-17T17:09:47.080Z,28.30
2022-11-17T17:14:49.632Z,29.52
2022-11-17T17:19:52.074Z,28.10
2022-11-17T17:24:54.578Z,27.13
2022-11-17T17:29:57.301Z,30.48
2022-11-17T17:34:59.858Z,32.08
2022-11-17T17:40:02.434Z,33.10
2022-11-17T17:45:06.200Z,34.65
2022-11-17T17:50:09.003Z,35.60
2022-11-17T17:55:12.066Z,36.10
2022-11-17T18:00:15.357Z,32.70
2022-11-17T18:05:17.938Z,31.05
2022-11-17T18:10:20.507Z,30.77
2022-11-17T18:15:22.995Z,32.20
2022-11-17T18:20:25.582Z,31.85
2022-11-17T18:25:28.254Z,31.52
2022-11-17T18:30:30.897Z,33.65
2022-11-17T18:35:35.535Z,32.00
2022-11-17T18:40:38.021Z,31.67
2022-11-17T18:45:40.625Z,33.13
2022-11-17T18:51:17.402Z,35.67
2022-11-17T18:56:09.920Z,27.70
2022-11-17T19:01:20.818Z,32.30
2022-11-17T19:06:25.496Z,31.42
2022-11-17T19:11:31.836Z,31.83
2022-11-17T19:16:44.540Z,35.75
2022-11-17T19:21:47.749Z,30.65
2022-11-17T19:26:50.244Z,31.80
2022-11-17T19:31:53.078Z,33.72
2022-11-17T19:36:55.640Z,34.20
2022-11-17T19:41:58.211Z,33.17
2022-11-17T19:47:00.895Z,28.73
2022-11-17T19:52:04.101Z,30.38
2022-11-17T19:57:06.651Z,31.15
2022-11-17T20:02:12.100Z,26.10
2022-11-17T20:07:14.760Z,27.75
2022-11-17T20:12:17.354Z,35.40
2022-11-17T20:17:19.877Z,31.08
2022-11-17T20:22:22.352Z,29.95
2022-11-17T20:27:25.941Z,33.95
2022-11-17T20:32:31.138Z,27.15
2022-11-17T20:37:33.709Z,29.40
2022-11-17T20:42:36.216Z,25.58
2022-11-17T20:47:38.856Z,26.52
2022-11-17T20:52:41.520Z,28.25
2022-11-17T20:57:44.059Z,27.95
2022-11-17T21:02:46.613Z,22.45
2022-11-17T21:07:49.164Z,25.20
2022-11-17T21:12:51.610Z,22.23
2022-11-17T21:18:12.576Z,22.08
2022-11-17T21:23:15.070Z,19.88
2022-11-17T21:28:17.713Z,20.50
2022-11-17T21:33:20.202Z,22.65
2022-11-17T21:38:22.884Z,18.38
2022-11-17T21:43:25.423Z,16.63
2022-11-17T21:48:27.919Z,17.20
2022-11-17T21:53:37.703Z,17.83
2022-11-17T21:58:40.715Z,15.60
2022-11-17T22:03:43.627Z,17.67
2022-11-17T22:08:47.653Z,18.42
2022-11-17T22:13:50.326Z,20.17
2022-11-17T22:18:52.783Z,24.63
2022-11-17T22:23:55.429Z,22.33
2022-11-17T22:28:58.743Z,23.60
2022-11-17T22:34:01.349Z,24.55
2022-11-17T22:39:04.297Z,23.85
2022-11-17T22:44:07.230Z,22.98
2022-11-17T22:49:10.601Z,25.33
2022-11-17T22:54:13.254Z,25.55
2022-11-17T22:59:16.857Z,24.55
2022-11-17T23:04:19.711Z,28.45
2022-11-17T23:09:22.297Z,26.23
2022-11-17T23:14:24.803Z,25.63
2022-11-17T23:19:27.348Z,26.15
2022-11-17T23:24:35.850Z,23.48
2022-11-17T23:29:38.758Z,24.90
2022-11-17T23:34:41.300Z,22.17
2022-11-17T23:39:43.844Z,19.05
2022-11-17T23:44:46.443Z,21.73
2022-11-17T23:49:48.990Z,20.30
2022-11-17T23:54:51.601Z,15.88
2022-11-17T23:59:54.170Z,15.13
